Time;durP1;ratioP1;P1;durP2;ratioP2;P2;SDS_P1;SDS_P2;PMS_P1;PMS_P2;Temp;Humidity;BMP_temperature;BMP_pressure;BME280_temperature;BME280_humidity;BME280_pressure;Samples;Min_cycle;Max_cycle;Signal;HPM_P1;HPM_P2
2022/05/24 00:00:25;;;;;;;15.50;11.90;;;;;;;14.53;100.00;99966.53;5055183;28;20441;-79
2022/05/24 00:03:00;;;;;;;14.67;10.40;;;;;;;13.96;100.00;99874.94;5068008;28;20433;-81
2022/05/24 00:05:30;;;;;;;12.80;9.27;;;;;;;14.03;100.00;99883.72;5052394;28;20460;-82
2022/05/24 00:07:56;;;;;;;11.97;8.83;;;;;;;14.31;100.00;99947.50;5057386;28;20554;-81
2022/05/24 00:10:32;;;;;;;11.40;8.40;;;;;;;14.48;100.00;100001.47;5053784;28;20783;-81
2022/05/24 00:12:58;;;;;;;13.10;8.00;;;;;;;13.60;100.00;99877.03;5054686;28;20232;-82
2022/05/24 00:15:28;;;;;;;7.00;6.20;;;;;;;13.98;100.00;99951.00;5060654;28;21004;-82
2022/05/24 00:18:25;;;;;;;9.30;5.40;;;;;;;14.31;100.00;100014.13;5063594;28;20853;-81
2022/05/24 00:20:54;;;;;;;6.90;4.93;;;;;;;14.33;100.00;100010.13;5057173;28;20464;-82
2022/05/24 00:23:28;;;;;;;11.70;5.40;;;;;;;14.37;100.00;100021.25;5057786;28;21015;-84
2022/05/24 00:25:57;;;;;;;7.50;4.47;;;;;;;14.47;100.00;100019.56;5057583;28;20467;-85
2022/05/24 00:28:25;;;;;;;5.90;4.10;;;;;;;14.59;100.00;100024.91;5058177;28;20440;-88
2022/05/24 00:30:57;;;;;;;7.00;4.17;;;;;;;14.60;100.00;100015.72;5059730;28;20448;-83
2022/05/24 00:34:10;;;;;;;5.00;4.50;;;;;;;14.07;100.00;99944.16;5057306;28;20538;-84
2022/05/24 00:36:11;;;;;;;6.40;4.10;;;;;;;14.43;100.00;100033.78;5052685;28;20432;-83
2022/05/24 00:38:38;;;;;;;6.90;3.80;;;;;;;13.91;100.00;99920.69;5059480;28;20436;-84
2022/05/24 00:41:32;;;;;;;3.87;3.50;;;;;;;14.40;100.00;100018.88;5071516;28;20175;-84
2022/05/24 00:44:04;;;;;;;8.43;3.40;;;;;;;14.29;100.00;100018.94;5037396;28;20953;-84
2022/05/24 00:47:09;;;;;;;3.73;3.13;;;;;;;14.16;100.00;100012.81;5069275;28;20492;-84
2022/05/24 00:50:01;;;;;;;5.93;3.57;;;;;;;14.47;100.00;100014.16;5056232;28;20439;-86
2022/05/24 00:52:54;;;;;;;4.83;3.60;;;;;;;13.78;100.00;99964.94;5061793;28;20480;-82
2022/05/24 00:55:23;;;;;;;10.67;4.50;;;;;;;14.40;100.00;100018.06;5059873;28;20471;-86
2022/05/24 00:58:19;;;;;;;5.13;3.63;;;;;;;13.44;100.00;99888.56;5058328;28;20440;-83
2022/05/24 01:00:45;;;;;;;4.87;3.90;;;;;;;13.91;100.00;99980.78;5061095;28;20472;-89
2022/05/24 01:03:17;;;;;;;6.63;4.17;;;;;;;14.19;100.00;100014.22;5060609;28;20437;-86
2022/05/24 01:05:46;;;;;;;7.23;4.07;;;;;;;14.16;100.00;99995.81;5057868;28;20438;-86
2022/05/24 01:08:11;;;;;;;9.27;4.50;;;;;;;13.75;100.00;99938.47;5055823;28;20442;-87
2022/05/24 01:10:48;;;;;;;7.07;4.60;;;;;;;13.95;100.00;99955.00;5076139;23;20546;-90
2022/05/24 01:13:24;;;;;;;4.20;3.60;;;;;;;13.88;100.00;99965.09;5067790;28;20203;-88
2022/05/24 01:15:51;;;;;;;4.33;3.77;;;;;;;14.33;100.00;100006.63;5078408;28;20436;-90
2022/05/24 01:18:19;;;;;;;6.00;3.83;;;;;;;14.27;100.00;100002.22;5065789;28;20472;-92
2022/05/24 01:20:48;;;;;;;7.07;3.90;;;;;;;13.86;100.00;99982.63;5049550;28;20465;-87
2022/05/24 01:23:36;;;;;;;5.43;3.60;;;;;;;13.94;100.00;100003.75;5044568;28;20440;-91
2022/05/24 01:26:16;;;;;;;3.53;3.17;;;;;;;14.25;100.00;100013.22;5043422;28;20462;-92
2022/05/24 01:28:50;;;;;;;3.70;3.17;;;;;;;11.01;100.00;99549.53;5234786;23;20458;-93
2022/05/24 01:31:16;;;;;;;7.13;4.20;;;;;;;13.95;100.00;99979.28;5035352;28;20448;-92
2022/05/24 01:36:31;;;;;;;5.80;4.10;;;;;;;13.79;100.00;100032.06;5058993;28;20944;-94
2022/05/24 01:39:03;;;;;;;5.93;3.60;;;;;;;13.91;100.00;100023.13;5030459;28;20460;-89
2022/05/24 01:41:40;;;;;;;3.97;3.40;;;;;;;13.75;100.00;99987.78;5031630;28;20970;-87
2022/05/24 01:44:06;;;;;;;4.97;3.57;;;;;;;13.53;100.00;99976.84;5029363;28;20521;-90
2022/05/24 01:46:44;;;;;;;6.23;3.93;;;;;;;13.38;100.00;99995.41;5024746;28;20450;-94
2022/05/24 01:49:14;;;;;;;6.77;3.30;;;;;;;10.92;100.00;99611.81;5344809;23;20458;-96
2022/05/24 01:51:48;;;;;;;3.40;3.00;;;;;;;12.11;100.00;99778.19;5064578;28;20437;-95
2022/05/24 01:54:17;;;;;;;5.53;3.23;;;;;;;13.71;100.00;99973.19;5302255;23;20485;-95
2022/05/24 02:01:50;;;;;;;4.67;2.80;;;;;;;11.39;100.00;99649.44;5042922;28;20487;-95
2022/05/24 02:14:37;;;;;;;4.87;2.57;;;;;;;10.91;100.00;99608.31;5040915;28;20479;-96
2022/05/24 02:17:39;;;;;;;4.90;2.30;;;;;;;12.04;100.00;99713.00;5015388;28;20526;-96
2022/05/24 02:20:11;;;;;;;2.70;2.40;;;;;;;13.54;100.00;99991.16;5055124;23;21058;-95
2022/05/24 02:22:38;;;;;;;5.00;2.57;;;;;;;10.58;100.00;99547.97;5084774;22;20472;-96
2022/05/24 02:25:13;;;;;;;5.20;2.90;;;;;;;13.59;100.00;99993.13;5018023;28;20505;-93
2022/05/24 02:27:43;;;;;;;3.77;2.83;;;;;;;13.64;100.00;99993.22;5108560;23;20453;-94
2022/05/24 02:30:10;;;;;;;5.87;3.23;;;;;;;11.77;100.00;99783.28;5093608;22;20487;-94
2022/05/24 02:32:35;;;;;;;4.47;2.67;;;;;;;10.05;100.00;99566.66;5312994;23;20584;-94
2022/05/24 02:35:01;;;;;;;5.07;2.80;;;;;;;11.00;100.00;99727.69;5208727;22;20499;-94
2022/05/24 02:37:26;;;;;;;3.10;2.10;;;;;;;11.15;100.00;99732.63;5007687;28;20211;-94
2022/05/24 02:42:36;;;;;;;6.70;3.27;;;;;;;12.84;100.00;100000.09;4988649;28;20200;-94
2022/05/24 02:45:02;;;;;;;5.40;3.50;;;;;;;12.95;100.00;100042.34;4995983;28;20441;-95
2022/05/24 02:47:28;;;;;;;7.23;4.53;;;;;;;12.36;100.00;99942.78;4997377;28;20223;-95
2022/05/24 02:49:53;;;;;;;5.70;4.33;;;;;;;12.76;100.00;100057.81;4984783;28;20465;-93
2022/05/24 02:54:53;;;;;;;6.20;4.17;;;;;;;13.02;100.00;100061.09;5440798;22;20220;-95
2022/05/24 02:57:19;;;;;;;8.73;5.17;;;;;;;9.95;100.00;99624.25;5072583;22;20491;-94
2022/05/24 02:59:45;;;;;;;6.83;4.80;;;;;;;11.93;100.00;99976.09;5015873;28;20327;-95
2022/05/24 03:15:25;;;;;;;7.87;6.17;;;;;;;12.51;100.00;99992.59;4947067;28;20485;-94
2022/05/24 03:17:51;;;;;;;8.37;6.03;;;;;;;11.58;100.00;99849.69;4952996;28;20458;-94
2022/05/24 03:20:16;;;;;;;8.93;6.00;;;;;;;13.06;100.00;100073.03;5157206;22;20240;-94
2022/05/24 03:22:42;;;;;;;8.83;5.23;;;;;;;13.37;100.00;100081.84;4990490;28;20618;-93
2022/05/24 03:25:08;;;;;;;6.87;5.53;;;;;;;13.19;100.00;100078.19;4990552;28;20638;-95
2022/05/24 03:27:34;;;;;;;7.30;5.43;;;;;;;11.15;100.00;99793.53;4998112;28;20274;-94
2022/05/24 03:29:59;;;;;;;12.43;6.17;;;;;;;12.77;100.00;100054.03;4997319;28;20208;-93
2022/05/24 03:32:27;;;;;;;10.17;5.77;;;;;;;12.20;100.00;99940.75;5022711;28;20215;-96
2022/05/24 03:37:29;;;;;;;8.43;5.90;;;;;;;10.17;100.00;99603.16;5845146;22;21819;-94
2022/05/24 03:45:07;;;;;;;11.90;6.53;;;;;;;13.18;100.00;100078.41;5346022;22;20869;-95
2022/05/24 03:47:32;;;;;;;9.07;5.60;;;;;;;13.24;100.00;100104.41;5021416;28;20471;-93
2022/05/24 03:49:58;;;;;;;11.77;6.23;;;;;;;12.82;100.00;100024.56;5014850;28;20491;-94
2022/05/24 03:52:24;;;;;;;10.70;7.03;;;;;;;13.16;100.00;100093.97;5008626;28;20194;-93
2022/05/24 03:54:49;;;;;;;10.80;7.40;;;;;;;13.22;100.00;100111.88;4997294;28;20186;-96
2022/05/24 03:59:59;;;;;;;11.13;8.70;;;;;;;11.30;100.00;99842.25;5217940;22;20260;-96
2022/05/24 04:02:34;;;;;;;8.57;7.67;;;;;;;11.51;100.00;99835.53;5121948;22;20994;-95
2022/05/24 04:05:00;;;;;;;10.60;9.03;;;;;;;12.49;100.00;99968.63;5033026;28;20240;-95
2022/05/24 04:07:28;;;;;;;13.57;9.50;;;;;;;11.76;100.00;99855.00;5317691;22;21635;-90
2022/05/24 04:10:01;;;;;;;16.10;11.13;;;;;;;13.41;100.00;100110.75;5090389;22;20232;-94
2022/05/24 04:15:02;;;;;;;15.90;11.30;;;;;;;13.19;100.00;100118.59;5645591;23;20486;-85
2022/05/24 04:20:06;;;;;;;14.43;11.07;;;;;;;13.16;100.00;100092.09;5164590;23;20208;-94
2022/05/24 04:27:47;;;;;;;16.87;12.43;;;;;;;13.44;100.00;100139.91;5334416;22;20885;-95
2022/05/24 04:32:51;;;;;;;16.50;14.53;;;;;;;12.99;100.00;100077.69;5109458;22;20525;-96
2022/05/24 04:35:16;;;;;;;17.20;13.53;;;;;;;12.49;100.00;99973.19;5040890;28;20934;-94
2022/05/24 04:37:41;;;;;;;20.00;15.20;;;;;;;12.72;100.00;100021.63;5013267;28;20436;-92
2022/05/24 04:40:07;;;;;;;20.37;16.87;;;;;;;13.19;100.00;100101.59;5007800;28;20216;-94
2022/05/24 04:42:33;;;;;;;18.57;15.53;;;;;;;12.91;100.00;100002.69;5013470;28;20362;-93
2022/05/24 04:45:03;;;;;;;20.73;17.63;;;;;;;13.15;100.00;100078.88;5022899;28;20185;-93
2022/05/24 04:47:30;;;;;;;24.17;18.67;;;;;;;13.59;100.00;100155.59;5005872;28;20239;-94
2022/05/24 04:49:57;;;;;;;23.57;18.07;;;;;;;12.75;100.00;100015.78;5008113;28;20555;-92
2022/05/24 04:52:26;;;;;;;18.60;16.70;;;;;;;13.79;100.00;100157.94;5003759;28;20940;-84
2022/05/24 04:54:53;;;;;;;19.83;17.70;;;;;;;13.64;100.00;100163.81;5002580;28;20454;-86
2022/05/24 04:57:18;;;;;;;22.40;19.10;;;;;;;12.89;100.00;100103.31;4999508;28;20537;-86
2022/05/24 04:59:44;;;;;;;22.43;18.87;;;;;;;12.98;100.00;100038.38;4998297;28;20467;-85
2022/05/24 05:02:10;;;;;;;23.03;18.97;;;;;;;13.62;100.00;100176.69;4999140;28;20241;-90
2022/05/24 05:04:36;;;;;;;24.90;18.63;;;;;;;13.61;100.00;100179.63;4996467;28;20193;-86
2022/05/24 05:07:03;;;;;;;21.67;18.80;;;;;;;13.84;100.00;100194.97;5004690;28;20232;-90
2022/05/24 05:09:34;;;;;;;26.57;21.50;;;;;;;13.51;100.00;100164.88;5003407;28;20507;-92
2022/05/24 05:12:07;;;;;;;23.17;20.13;;;;;;;13.89;100.00;100189.69;5015867;28;20473;-87
2022/05/24 05:14:34;;;;;;;26.03;20.17;;;;;;;13.98;100.00;100172.09;4994418;28;20443;-89
2022/05/24 05:16:59;;;;;;;24.50;18.67;;;;;;;13.30;100.00;100068.47;5016434;28;20889;-93
2022/05/24 05:19:25;;;;;;;24.50;19.17;;;;;;;13.84;100.00;100176.09;4998861;28;20510;-92
2022/05/24 05:21:50;;;;;;;23.43;20.23;;;;;;;13.98;100.00;100191.78;4999975;28;20694;-91
2022/05/24 05:24:16;;;;;;;22.57;18.27;;;;;;;14.15;100.00;100194.56;4995315;28;20676;-91
2022/05/24 05:26:41;;;;;;;22.30;19.50;;;;;;;13.04;100.00;100056.28;4999794;28;20193;-89
2022/05/24 05:29:07;;;;;;;22.77;19.50;;;;;;;13.91;100.00;100182.16;4993142;28;20209;-88
2022/05/24 05:31:32;;;;;;;23.90;19.90;;;;;;;13.57;100.00;100145.06;4998583;28;20197;-92
2022/05/24 05:34:00;;;;;;;24.50;18.00;;;;;;;13.74;100.00;100122.78;5002826;28;20192;-91
2022/05/24 05:36:30;;;;;;;19.90;17.20;;;;;;;14.06;100.00;100195.16;5007381;28;20189;-90
2022/05/24 05:38:56;;;;;;;24.40;18.27;;;;;;;14.02;100.00;100200.22;5019605;28;20450;-89
2022/05/24 05:41:27;;;;;;;17.63;15.80;;;;;;;14.06;100.00;100203.25;5010195;28;20471;-92
2022/05/24 05:43:54;;;;;;;17.20;15.33;;;;;;;14.29;100.00;100202.38;5008387;28;20943;-91
2022/05/24 05:46:19;;;;;;;20.10;15.27;;;;;;;14.12;100.00;100200.44;4998293;28;20538;-91
2022/05/24 05:48:45;;;;;;;18.60;15.57;;;;;;;13.81;100.00;100146.94;5000086;28;20455;-91
2022/05/24 05:51:13;;;;;;;19.40;14.50;;;;;;;14.37;100.00;100196.63;5005247;28;20208;-89
2022/05/24 05:53:40;;;;;;;14.83;12.30;;;;;;;14.26;100.00;100174.00;5020349;28;20188;-92
2022/05/24 05:56:12;;;;;;;16.63;12.60;;;;;;;14.27;100.00;100201.81;5004902;28;20448;-93
2022/05/24 05:58:38;;;;;;;15.57;12.80;;;;;;;13.99;100.00;100171.84;4997979;28;20451;-91
2022/05/24 06:01:03;;;;;;;13.70;10.50;;;;;;;13.31;100.00;100035.94;5000098;28;20468;-91
2022/05/24 06:03:30;;;;;;;13.87;9.87;;;;;;;14.33;100.00;100200.84;5006637;28;20196;-93
2022/05/24 06:06:00;;;;;;;10.97;9.87;;;;;;;13.65;100.00;100046.06;5000508;28;20638;-89
2022/05/24 06:08:26;;;;;;;11.47;9.00;;;;;;;13.76;100.00;100062.19;5005100;28;20435;-88
2022/05/24 06:10:51;;;;;;;10.87;9.50;;;;;;;14.48;100.00;100172.28;5014483;28;20459;-90
2022/05/24 06:13:17;;;;;;;9.90;8.60;;;;;;;14.29;100.00;100113.34;4998683;28;20456;-90
2022/05/24 06:15:47;;;;;;;12.10;9.07;;;;;;;14.33;100.00;100157.69;5004148;28;20814;-88
2022/05/24 06:18:13;;;;;;;12.77;9.57;;;;;;;14.22;100.00;100135.91;5016563;28;20184;-87
2022/05/24 06:20:38;;;;;;;9.90;8.63;;;;;;;14.21;100.00;100139.66;4999893;28;20460;-89
2022/05/24 06:23:03;;;;;;;13.90;8.90;;;;;;;13.84;100.00;100076.38;5003159;28;20181;-93
2022/05/24 06:25:30;;;;;;;12.43;9.60;;;;;;;14.38;100.00;100152.41;5018690;28;20741;-87
2022/05/24 06:27:56;;;;;;;13.10;9.20;;;;;;;14.61;100.00;100155.03;5005826;28;20201;-95
2022/05/24 06:30:23;;;;;;;12.10;8.53;;;;;;;14.37;100.00;100129.16;5002003;28;20463;-89
2022/05/24 06:32:50;;;;;;;12.60;8.73;;;;;;;14.48;100.00;100149.88;5008389;28;20450;-94
2022/05/24 06:35:16;;;;;;;10.80;8.40;;;;;;;14.44;100.00;100141.47;5026395;28;20494;-95
2022/05/24 06:37:42;;;;;;;12.60;8.17;;;;;;;14.19;100.00;100093.22;5005430;28;20433;-85
2022/05/24 06:40:10;;;;;;;10.47;7.60;;;;;;;14.60;100.00;100147.16;4998520;28;20459;-87
2022/05/24 06:42:35;;;;;;;8.90;7.50;;;;;;;13.99;100.00;100060.47;5000158;28;20514;-87
2022/05/24 06:45:01;;;;;;;9.80;7.33;;;;;;;14.36;100.00;100114.06;4991307;28;20526;-86
2022/05/24 06:47:27;;;;;;;12.70;7.50;;;;;;;14.31;100.00;100109.38;5000218;28;20213;-89
2022/05/24 06:49:53;;;;;;;8.63;7.73;;;;;;;14.32;100.00;100137.16;5000578;28;20251;-86
2022/05/24 06:52:19;;;;;;;9.83;7.10;;;;;;;14.41;100.00;100157.31;5001841;28;20444;-85
2022/05/24 06:54:44;;;;;;;10.00;7.87;;;;;;;14.04;100.00;100125.31;5002739;28;20283;-87
2022/05/24 06:57:09;;;;;;;10.73;8.40;;;;;;;14.15;100.00;100201.84;5015068;28;21132;-86
2022/05/24 07:02:25;;;;;;;10.70;8.27;;;;;;;14.36;100.00;100198.50;5000527;28;20188;-86
2022/05/24 07:05:05;;;;;;;12.70;8.40;;;;;;;14.48;100.00;100193.06;5003908;28;20499;-87
2022/05/24 07:07:32;;;;;;;9.67;7.73;;;;;;;14.30;100.00;100175.19;4996436;28;21373;-81
2022/05/24 07:09:59;;;;;;;9.77;7.17;;;;;;;13.50;100.00;100062.72;5001000;28;20531;-77
2022/05/24 07:12:25;;;;;;;11.10;7.23;;;;;;;14.13;100.00;100166.19;4998973;28;20447;-78
2022/05/24 07:14:51;;;;;;;16.13;12.23;;;;;;;14.08;100.00;100226.22;5008205;28;20435;-78
2022/05/24 07:17:17;;;;;;;18.40;14.57;;;;;;;13.51;100.00;100164.03;4998755;28;20835;-80
2022/05/24 07:19:44;;;;;;;25.10;15.23;;;;;;;13.99;100.00;100214.97;4992749;28;20691;-82
2022/05/24 07:22:10;;;;;;;22.13;16.30;;;;;;;13.95;100.00;100242.66;4990008;28;20525;-84
2022/05/24 07:24:37;;;;;;;26.67;17.20;;;;;;;14.02;100.00;100225.28;5002078;28;20439;-86
2022/05/24 07:27:04;;;;;;;18.13;15.30;;;;;;;14.11;100.00;100252.72;4997505;28;20460;-89
2022/05/24 07:29:33;;;;;;;21.60;16.63;;;;;;;14.00;100.00;100267.88;4996696;28;21042;-85
2022/05/24 07:32:02;;;;;;;20.20;16.10;;;;;;;13.28;100.00;100154.09;5014402;28;20818;-85
2022/05/24 07:34:27;;;;;;;20.03;15.93;;;;;;;14.08;100.00;100266.69;4995339;28;20542;-86
2022/05/24 07:36:53;;;;;;;19.77;14.40;;;;;;;14.12;100.00;100275.94;4988826;28;20514;-86
2022/05/24 07:39:18;;;;;;;24.60;17.23;;;;;;;13.41;100.00;100215.81;4996807;28;20197;-87
2022/05/24 07:47:13;;;;;;;18.73;14.17;;;;;;;13.85;100.00;100274.78;4994874;28;20475;-85
2022/05/24 07:49:38;;;;;;;16.70;12.83;;;;;;;13.42;100.00;100198.59;4998769;28;20451;-86
2022/05/24 07:52:04;;;;;;;14.60;11.50;;;;;;;13.64;100.00;100184.56;4992011;28;20192;-82
2022/05/24 07:54:31;;;;;;;14.63;11.20;;;;;;;13.68;100.00;100235.06;4988692;28;20192;-84
2022/05/24 07:56:56;;;;;;;18.83;11.47;;;;;;;14.17;100.00;100286.84;4992200;28;20440;-86
2022/05/24 07:59:21;;;;;;;17.53;13.10;;;;;;;13.19;100.00;100153.59;4993605;28;20545;-85
2022/05/24 08:01:47;;;;;;;21.53;13.83;;;;;;;13.16;100.00;100128.97;4995174;28;20749;-80
2022/05/24 08:04:12;;;;;;;20.93;13.30;;;;;;;13.67;100.00;100190.28;4997147;28;20196;-85
2022/05/24 08:06:38;;;;;;;16.70;11.70;;;;;;;13.84;100.00;100221.94;4998014;28;20205;-89
2022/05/24 08:09:04;;;;;;;18.57;13.00;;;;;;;13.68;100.00;100209.97;4993522;28;20407;-83
2022/05/24 08:11:33;;;;;;;19.10;14.10;;;;;;;13.68;100.00;100199.19;4997020;28;20197;-90
2022/05/24 08:13:59;;;;;;;15.67;12.20;;;;;;;13.63;100.00;100182.91;5004051;28;20448;-89
2022/05/24 08:16:28;;;;;;;16.13;11.23;;;;;;;14.35;100.00;100279.66;4999954;28;20467;-86
2022/05/24 08:18:54;;;;;;;18.83;12.43;;;;;;;14.09;100.00;100271.03;5019332;28;20482;-89
2022/05/24 08:21:20;;;;;;;18.57;11.33;;;;;;;13.89;100.00;100230.94;5003149;28;20439;-90
2022/05/24 08:23:48;;;;;;;17.83;11.73;;;;;;;14.23;100.00;100285.91;5010280;28;20924;-92
2022/05/24 08:26:13;;;;;;;16.70;11.40;;;;;;;13.06;100.00;100140.34;4997433;28;20439;-85
2022/05/24 08:28:41;;;;;;;17.37;11.90;;;;;;;13.46;100.00;100229.41;4999884;28;20424;-87
2022/05/24 08:31:08;;;;;;;15.77;11.10;;;;;;;13.61;100.00;100263.97;5000597;28;20724;-86
2022/05/24 08:33:33;;;;;;;14.00;10.63;;;;;;;13.97;100.00;100306.09;5001830;28;20447;-91
2022/05/24 08:35:59;;;;;;;17.67;12.07;;;;;;;13.65;100.00;100275.91;4999344;28;20440;-88
2022/05/24 08:38:26;;;;;;;13.70;9.97;;;;;;;13.73;100.00;100245.94;5004419;28;20204;-88
2022/05/24 08:40:58;;;;;;;18.33;11.67;;;;;;;13.47;100.00;100249.09;4998394;28;20236;-92
2022/05/24 08:43:40;;;;;;;18.10;9.80;;;;;;;14.25;100.00;100291.88;5018468;28;20505;-92
2022/05/24 08:49:04;;;;;;;16.33;10.80;;;;;;;13.87;100.00;100310.41;5002089;28;20538;-92
2022/05/24 08:51:38;;;;;;;19.90;9.77;;;;;;;13.77;100.00;100305.59;5002459;28;20453;-93
2022/05/24 08:54:11;;;;;;;12.77;8.70;;;;;;;13.92;100.00;100307.84;5002536;28;20443;-94
2022/05/24 08:56:51;;;;;;;15.07;11.50;;;;;;;13.19;100.00;100222.75;5005849;28;20474;-90
2022/05/24 08:59:29;;;;;;;20.63;10.90;;;;;;;13.94;100.00;100314.66;5018659;28;20601;-91
2022/05/24 09:01:56;;;;;;;15.63;9.33;;;;;;;13.64;100.00;100244.66;4998367;28;20487;-89
2022/05/24 09:04:22;;;;;;;12.10;9.20;;;;;;;14.33;100.00;100311.47;4994354;28;20991;-89
2022/05/24 09:06:53;;;;;;;16.63;8.23;;;;;;;14.32;100.00;100309.81;5010974;28;20464;-89
2022/05/24 09:09:43;;;;;;;15.67;8.40;;;;;;;14.32;100.00;100299.00;4995801;28;20463;-91
2022/05/24 09:12:33;;;;;;;13.30;8.97;;;;;;;14.36;100.00;100292.91;4993486;28;20440;-88
2022/05/24 09:15:11;;;;;;;11.70;8.33;;;;;;;14.46;100.00;100322.84;5018260;28;20956;-88
2022/05/24 09:17:59;;;;;;;10.43;7.67;;;;;;;14.40;100.00;100309.44;4999775;28;20431;-89
2022/05/24 09:20:24;;;;;;;12.47;8.43;;;;;;;14.18;100.00;100323.56;5000975;28;20834;-87
2022/05/24 09:22:55;;;;;;;15.83;8.90;;;;;;;14.31;100.00;100308.19;4998047;28;20451;-89
2022/05/24 09:25:20;;;;;;;15.83;8.80;;;;;;;14.27;100.00;100264.69;4997939;28;20185;-87
2022/05/24 09:27:53;;;;;;;12.47;8.87;;;;;;;14.53;100.00;100316.53;4997022;28;20462;-85
2022/05/24 09:30:42;;;;;;;17.40;9.77;;;;;;;14.33;100.00;100274.50;5003016;28;20235;-87
2022/05/24 09:33:23;;;;;;;9.60;8.23;;;;;;;15.00;100.00;100316.38;4988887;28;20451;-87
2022/05/24 09:35:51;;;;;;;12.90;8.50;;;;;;;15.20;100.00;100307.84;4990581;28;20456;-84
2022/05/24 09:38:22;;;;;;;14.33;8.10;;;;;;;15.24;100.00;100300.88;4990788;28;20593;-87
2022/05/24 09:40:58;;;;;;;19.13;9.53;;;;;;;15.28;100.00;100313.69;4994980;28;20466;-87
2022/05/24 09:43:33;;;;;;;17.57;8.70;;;;;;;14.78;100.00;100254.97;4998043;28;20526;-86
2022/05/24 09:46:07;;;;;;;20.20;7.53;;;;;;;15.11;100.00;100278.53;4996984;28;20451;-86
2022/05/24 09:48:37;;;;;;;12.30;7.37;;;;;;;15.53;100.00;100299.78;5004206;28;20452;-90
2022/05/24 09:51:10;;;;;;;10.03;7.77;;;;;;;14.45;100.00;100132.28;5000495;28;20468;-85
2022/05/24 09:53:52;;;;;;;13.87;8.67;;;;;;;15.27;100.00;100266.09;5003942;28;20436;-90
2022/05/24 09:56:25;;;;;;;9.73;6.90;;;;;;;15.86;100.00;100284.66;5002745;28;20924;-89
2022/05/24 09:58:55;;;;;;;8.60;6.67;;;;;;;14.07;100.00;100043.94;5003368;28;20576;-89
2022/05/24 10:01:36;;;;;;;11.73;7.10;;;;;;;14.83;100.00;100181.31;5016329;28;20937;-89
2022/05/24 10:04:11;;;;;;;10.93;8.00;;;;;;;15.60;100.00;100278.81;5002334;28;20451;-81
2022/05/24 10:06:37;;;;;;;13.77;7.80;;;;;;;15.49;100.00;100289.72;5002302;28;20530;-87
2022/05/24 10:09:31;;;;;;;13.93;8.47;;;;;;;14.64;100.00;100194.22;5004029;28;20451;-89
2022/05/24 10:12:04;;;;;;;10.03;6.50;;;;;;;14.94;100.00;100272.25;5000817;28;20509;-86
2022/05/24 10:14:44;;;;;;;11.20;8.40;;;;;;;14.63;100.00;100273.53;5003264;28;20443;-88
2022/05/24 10:17:32;;;;;;;10.20;6.30;;;;;;;14.21;100.00;100200.88;4995684;28;20530;-86
2022/05/24 10:20:16;;;;;;;8.60;7.20;;;;;;;14.58;100.00;100319.31;4993825;28;20578;-79
2022/05/24 10:23:10;;;;;;;12.90;7.57;;;;;;;14.52;100.00;100336.44;4985826;28;20930;-77
2022/05/24 10:25:41;;;;;;;11.13;6.30;;;;;;;14.76;100.00;100345.34;4986350;28;20479;-76
2022/05/24 10:28:29;;;;;;;12.97;7.13;;;;;;;14.75;100.00;100351.78;4987570;28;20467;-77
2022/05/24 10:31:25;;;;;;;7.13;5.43;;;;;;;14.42;100.00;100364.81;4937864;28;20467;-80
2022/05/24 10:40:17;;;;;;;8.27;5.40;;;;;;;14.31;100.00;100395.31;4993439;28;20728;-83
2022/05/24 10:42:45;;;;;;;5.40;4.37;;;;;;;14.16;100.00;100403.06;4994161;28;20943;-85
2022/05/24 10:45:16;;;;;;;4.43;3.07;;;;;;;13.93;100.00;100384.97;5010631;28;20453;-81
2022/05/24 10:47:59;;;;;;;4.33;1.67;;;;;;;13.68;100.00;100418.31;4989787;28;20475;-80
2022/05/24 10:50:43;;;;;;;4.40;1.70;;;;;;;13.72;100.00;100426.75;4998263;28;20459;-87
2022/05/24 10:53:47;;;;;;;1.00;0.80;;;;;;;13.56;100.00;100420.94;4995551;28;20432;-88
2022/05/24 10:56:28;;;;;;;1.87;0.63;;;;;;;13.46;100.00;100438.72;4935483;28;20442;-84
2022/05/24 10:59:03;;;;;;;1.70;1.10;;;;;;;13.45;100.00;100412.81;4911722;28;20832;-83
2022/05/24 11:01:38;;;;;;;1.60;0.67;;;;;;;13.26;100.00;100455.97;4965948;28;20950;-79
2022/05/24 11:04:10;;;;;;;1.10;0.80;;;;;;;13.26;100.00;100450.56;4987761;28;20517;-79
2022/05/24 11:06:40;;;;;;;7.03;1.10;;;;;;;13.65;100.00;100440.31;4986406;28;20863;-79
2022/05/24 11:09:21;;;;;;;4.07;0.93;;;;;;;13.49;100.00;100435.59;4975347;28;20448;-82
2022/05/24 11:11:52;;;;;;;1.47;1.00;;;;;;;13.97;100.00;100448.16;4983775;28;20452;-80
2022/05/24 11:14:40;;;;;;;4.17;1.30;;;;;;;13.92;100.00;100438.06;4984703;28;20497;-84
2022/05/24 11:17:10;;;;;;;2.20;1.30;;;;;;;13.89;100.00;100408.88;4982897;28;20500;-80
2022/05/24 11:19:42;;;;;;;2.40;1.30;;;;;;;13.97;100.00;100410.41;4986723;28;20583;-81
2022/05/24 11:22:25;;;;;;;2.70;1.40;;;;;;;14.94;100.00;100436.97;5005502;28;20449;-84
2022/05/24 11:25:00;;;;;;;3.03;1.70;;;;;;;14.39;100.00;100435.44;4994878;28;20531;-80
2022/05/24 11:27:37;;;;;;;1.70;1.50;;;;;;;14.06;100.00;100441.41;4991179;28;20479;-85
2022/05/24 11:30:30;;;;;;;2.93;2.00;;;;;;;13.39;100.00;100400.25;4983094;28;20463;-78
2022/05/24 11:33:02;;;;;;;4.90;1.90;;;;;;;13.88;100.00;100476.50;4990130;28;20452;-82
2022/05/24 11:35:35;;;;;;;4.50;2.43;;;;;;;12.59;100.00;100420.84;4990294;28;20444;-78
2022/05/24 11:38:35;;;;;;;2.80;2.30;;;;;;;12.77;100.00;100503.47;4985782;28;20434;-76
2022/05/24 11:41:07;;;;;;;2.93;1.60;;;;;;;12.60;100.00;100505.88;4990889;28;20555;-76
2022/05/24 11:43:35;;;;;;;3.30;1.40;;;;;;;13.06;100.00;100506.50;4985604;28;20518;-78
2022/05/24 11:46:00;;;;;;;3.40;1.40;;;;;;;13.13;100.00;100509.94;4982143;28;20508;-76
2022/05/24 11:48:48;;;;;;;2.10;1.20;;;;;;;13.27;100.00;100510.66;4989339;28;20639;-78
2022/05/24 11:51:39;;;;;;;1.00;0.90;;;;;;;13.06;100.00;100506.50;4990013;28;20199;-76
2022/05/24 11:54:24;;;;;;;2.70;0.90;;;;;;;12.96;100.00;100514.25;4989901;28;20436;-77
2022/05/24 11:57:03;;;;;;;1.93;1.10;;;;;;;12.46;100.00;100377.09;4992005;28;20450;-80
2022/05/24 11:59:41;;;;;;;2.33;1.30;;;;;;;13.52;100.00;100515.97;4987072;28;20508;-79
2022/05/24 12:02:32;;;;;;;17.77;2.20;;;;;;;13.62;100.00;100510.84;4982787;28;20451;-85
2022/05/24 12:08:24;;;;;;;5.53;1.57;;;;;;;13.69;100.00;100500.81;4982914;28;21037;-84
2022/05/24 12:10:52;;;;;;;2.40;1.20;;;;;;;13.90;100.00;100499.47;4989654;28;20832;-82
2022/05/24 12:13:29;;;;;;;2.10;1.10;;;;;;;13.99;100.00;100537.72;4982421;28;20502;-83
2022/05/24 12:16:16;;;;;;;2.23;1.13;;;;;;;13.99;100.00;100502.69;5007078;28;20439;-76
2022/05/24 12:18:59;;;;;;;2.00;1.17;;;;;;;13.52;100.00;100497.09;4992501;28;20436;-77
2022/05/24 12:21:40;;;;;;;1.53;1.33;;;;;;;14.38;100.00;100540.94;4990888;28;20721;-83
2022/05/24 12:24:38;;;;;;;1.63;1.43;;;;;;;14.43;100.00;100541.03;4996528;28;21347;-85
2022/05/24 12:27:33;;;;;;;1.83;1.20;;;;;;;14.20;100.00;100531.00;4977562;28;20563;-84
2022/05/24 12:30:28;;;;;;;1.73;1.10;;;;;;;14.91;100.00;100534.66;4993801;28;20554;-82
2022/05/24 12:32:56;;;;;;;2.60;1.30;;;;;;;14.95;100.00;100545.81;4991512;28;20448;-81
2022/05/24 12:35:23;;;;;;;2.30;1.37;;;;;;;14.95;100.00;100538.53;4992480;28;20915;-82
2022/05/24 12:37:54;;;;;;;1.60;1.40;;;;;;;15.00;100.00;100527.03;4999235;28;20435;-86
2022/05/24 12:40:32;;;;;;;1.67;1.30;;;;;;;15.41;100.00;100507.13;4981923;28;20463;-90
2022/05/24 12:43:07;;;;;;;2.57;1.30;;;;;;;14.90;100.00;100487.13;4992819;28;20436;-87
2022/05/24 12:45:39;;;;;;;3.37;1.07;;;;;;;15.43;100.00;100510.41;4994628;28;20462;-86
2022/05/24 12:48:25;;;;;;;1.23;0.90;;;;;;;15.73;100.00;100496.69;4997788;28;20495;-93
2022/05/24 12:50:59;;;;;;;2.60;0.90;;;;;;;15.51;100.00;100487.59;4997523;28;20459;-89
2022/05/24 12:53:25;;;;;;;2.03;1.20;;;;;;;15.21;100.00;100495.88;5022424;28;20443;-88